Time,TemperatureF,DewpointF,PressureIn,WindDirection,WindDirectionDegrees,WindSpeedMPH,WindSpeedGustMPH,Humidity,HourlyPrecipIn,Conditions,Clouds,dailyrainin,SoftwareType,DateUTC
2013-06-20 00:01:00,48.9,47.0,30.18,East,90,1.6,2.3,93,0.00,FEW,,0.00,WeatherDisplay:10.37,2013-06-20 04:01:00,
2013-06-20 00:02:00,48.9,47.0,30.18,SSE,158,0.2,2.3,93,0.00,SCT,,0.00,WeatherDisplay:10.37,2013-06-20 04:02:00,
2013-06-20 00:07:00,48.7,46.8,30.18,SSE,158,1.4,1.7,93,0.00,SCT,,0.00,WeatherDisplay:10.37,2013-06-20 04:07:00,
2013-06-20 00:12:00,48.6,46.7,30.18,SE,135,0.4,1.1,93,0.00,SCT,,0.00,WeatherDisplay:10.37,2013-06-20 04:12:00,
2013-06-20 00:17:00,48.6,46.7,30.18,SSE,158,0.0,1.1,93,0.00,SCT,,0.00,WeatherDisplay:10.37,2013-06-20 04:17:00,
2013-06-20 00:22:00,48.4,46.8,30.19,ENE,68,0.5,1.1,94,0.00,SCT,,0.00,WeatherDisplay:10.37,2013-06-20 04:22:00,
2013-06-20 00:27:00,48.2,46.6,30.19,SE,135,0.0,1.1,94,0.00,SCT,,0.00,WeatherDisplay:10.37,2013-06-20 04:27:00,
2013-06-20 00:32:00,48.2,46.6,30.19,ESE,112,0.0,0.0,94,0.00,SCT,,0.00,WeatherDisplay:10.37,2013-06-20 04:32:00,
2013-06-20 00:37:00,48.0,46.6,30.19,SSE,158,0.0,0.0,95,0.00,SCT,,0.00,WeatherDisplay:10.37,2013-06-20 04:37:00,
2013-06-20 00:42:00,48.0,46.6,30.19,ESE,112,0.6,1.7,95,0.00,SCT,,0.00,WeatherDisplay:10.37,2013-06-20 04:42:00,
2013-06-20 00:47:00,48.0,46.6,30.19,SE,135,1.7,1.7,95,0.00,SCT,,0.00,WeatherDisplay:10.37,2013-06-20 04:47:00,
2013-06-20 00:52:00,48.0,46.6,30.19,SSE,158,2.1,2.2,95,0.00,SCT,,0.00,WeatherDisplay:10.37,2013-06-20 04:52:00,
2013-06-20 00:57:00,48.4,47.0,30.19,SE,135,2.6,3.5,95,0.00,SCT,,0.00,WeatherDisplay:10.37,2013-06-20 04:57:00,
2013-06-20 01:02:00,48.2,46.8,30.19,ESE,112,0.3,1.1,95,0.00,SCT,,0.00,WeatherDisplay:10.37,2013-06-20 05:02:00,
2013-06-20 01:07:00,48.0,46.6,30.19,ESE,112,0.4,1.1,95,0.00,SCT,,0.00,WeatherDisplay:10.37,2013-06-20 05:07:00,
2013-06-20 01:12:00,48.0,46.6,30.19,ESE,112,1.4,1.4,95,0.00,SCT,,0.00,WeatherDisplay:10.37,2013-06-20 05:12:00,
2013-06-20 01:17:00,47.8,46.4,30.19,ENE,68,0.1,1.1,95,0.00,SCT,,0.00,WeatherDisplay:10.37,2013-06-20 05:17:00,
2013-06-20 01:22:00,47.8,46.4,30.19,ESE,112,1.0,1.1,95,0.00,SCT,,0.00,WeatherDisplay:10.37,2013-06-20 05:22:00,
2013-06-20 01:27:00,47.7,46.3,30.19,ESE,112,0.6,1.1,95,0.00,SCT,,0.00,WeatherDisplay:10.37,2013-06-20 05:27:00,
2013-06-20 01:32:00,47.7,46.3,30.19,East,90,0.8,1.1,95,0.00,SCT,,0.00,WeatherDisplay:10.37,2013-06-20 05:32:00,
2013-06-20 01:37:00,47.5,46.1,30.19,East,90,0.5,1.7,95,0.00,SCT,,0.00,WeatherDisplay:10.37,2013-06-20 05:37:00,
2013-06-20 01:42:00,47.5,46.1,30.19,SE,135,0.0,0.0,95,0.00,SCT,,0.00,WeatherDisplay:10.37,2013-06-20 05:42:00,
2013-06-20 01:47:00,47.3,45.9,30.19,SE,135,0.8,0.0,95,0.00,SCT,,0.00,WeatherDisplay:10.37,2013-06-20 05:47:00,
2013-06-20 01:52:00,47.1,45.7,30.19,SSE,158,0.7,0.0,95,0.00,SCT,,0.00,WeatherDisplay:10.37,2013-06-20 05:52:00,
2013-06-20 01:57:00,46.9,45.5,30.19,SSE,158,0.0,1.1,95,0.00,SCT,,0.00,WeatherDisplay:10.37,2013-06-20 05:57:00,
2013-06-20 02:02:00,46.9,45.5,30.19,ESE,112,1.6,2.3,95,0.00,SCT,,0.00,WeatherDisplay:10.37,2013-06-20 06:02:00,
2013-06-20 02:07:00,46.9,45.5,30.18,SE,135,1.9,2.3,95,0.00,SCT,,0.00,WeatherDisplay:10.37,2013-06-20 06:07:00,
2013-06-20 02:12:00,46.9,45.5,30.18,ESE,112,2.0,2.3,95,0.00,FEW,,0.00,WeatherDisplay:10.37,2013-06-20 06:12:00,
2013-06-20 02:17:00,46.9,45.5,30.18,SE,135,1.0,1.1,95,0.00,FEW,,0.00,WeatherDisplay:10.37,2013-06-20 06:17:00,
2013-06-20 02:22:00,46.8,45.4,30.19,ESE,112,1.0,1.1,95,0.00,FEW,,0.00,WeatherDisplay:10.37,2013-06-20 06:22:00,
2013-06-20 02:27:00,46.8,45.4,30.19,East,90,0.9,2.3,95,0.00,FEW,,0.00,WeatherDisplay:10.37,2013-06-20 06:27:00,
2013-06-20 02:32:00,46.8,45.4,30.19,SSE,158,2.1,2.7,95,0.00,FEW,,0.00,WeatherDisplay:10.37,2013-06-20 06:32:00,
2013-06-20 02:37:00,46.8,45.4,30.19,SE,135,0.5,1.1,95,0.00,FEW,,0.00,WeatherDisplay:10.37,2013-06-20 06:37:00,
2013-06-20 02:42:00,46.6,45.2,30.18,SE,135,1.1,1.1,95,0.00,FEW,,0.00,WeatherDisplay:10.37,2013-06-20 06:42:00,
2013-06-20 02:47:00,46.8,45.4,30.18,SSE,158,1.7,2.3,95,0.00,FEW,,0.00,WeatherDisplay:10.37,2013-06-20 06:47:00,
2013-06-20 02:52:00,46.9,45.5,30.18,SSE,158,2.6,2.7,95,0.00,FEW,,0.00,WeatherDisplay:10.37,2013-06-20 06:52:00,
2013-06-20 02:57:00,46.9,45.5,30.18,ESE,112,2.2,2.7,95,0.00,FEW,,0.00,WeatherDisplay:10.37,2013-06-20 06:57:00,
2013-06-20 03:02:00,46.9,45.5,30.18,SSE,158,2.4,3.5,95,0.00,CLR,,0.00,WeatherDisplay:10.37,2013-06-20 07:02:00,
2013-06-20 03:07:00,46.9,45.5,30.18,SSE,158,2.8,3.5,95,0.00,CLR,,0.00,WeatherDisplay:10.37,2013-06-20 07:07:00,
2013-06-20 03:12:00,46.9,45.5,30.18,SSE,158,1.6,2.2,95,0.00,CLR,,0.00,WeatherDisplay:10.37,2013-06-20 07:12:00,
2013-06-20 03:17:00,46.8,45.4,30.18,ESE,112,0.9,1.1,95,0.00,CLR,,0.00,WeatherDisplay:10.37,2013-06-20 07:17:00,
2013-06-20 03:22:00,46.6,45.2,30.18,ESE,112,1.8,2.3,95,0.00,CLR,,0.00,WeatherDisplay:10.37,2013-06-20 07:22:00,
2013-06-20 03:27:00,46.6,45.2,30.18,NNE,22,0.2,1.1,95,0.00,CLR,,0.00,WeatherDisplay:10.37,2013-06-20 07:27:00,
2013-06-20 03:32:00,46.2,44.8,30.18,NE,45,0.0,0.0,95,0.00,CLR,,0.00,WeatherDisplay:10.37,2013-06-20 07:32:00,
2013-06-20 03:37:00,46.0,44.6,30.18,ESE,112,0.0,0.0,95,0.00,CLR,,0.00,WeatherDisplay:10.37,2013-06-20 07:37:00,
2013-06-20 03:42:00,46.0,44.6,30.19,ESE,112,0.0,0.0,95,0.00,CLR,,0.00,WeatherDisplay:10.37,2013-06-20 07:42:00,
2013-06-20 03:47:00,45.9,44.5,30.19,ENE,68,0.0,0.0,95,0.00,CLR,,0.00,WeatherDisplay:10.37,2013-06-20 07:47:00,
2013-06-20 03:52:00,45.7,44.4,30.19,ESE,112,0.0,0.0,95,0.00,CLR,,0.00,WeatherDisplay:10.37,2013-06-20 07:52:00,
2013-06-20 03:57:00,45.5,44.2,30.19,SE,135,0.0,0.0,95,0.00,CLR,,0.00,WeatherDisplay:10.37,2013-06-20 07:57:00,
2013-06-20 04:02:00,45.3,44.0,30.19,NE,45,0.0,0.0,95,0.00,CLR,,0.00,WeatherDisplay:10.37,2013-06-20 08:02:00,
2013-06-20 04:07:00,45.3,44.0,30.19,East,90,0.8,1.1,95,0.00,CLR,,0.00,WeatherDisplay:10.37,2013-06-20 08:07:00,
2013-06-20 04:12:00,45.3,44.0,30.19,ENE,68,0.0,0.0,95,0.00,CLR,,0.00,WeatherDisplay:10.37,2013-06-20 08:12:00,
2013-06-20 04:17:00,45.3,44.0,30.19,SE,135,0.0,0.0,95,0.00,CLR,,0.00,WeatherDisplay:10.37,2013-06-20 08:17:00,
2013-06-20 04:22:00,45.1,43.8,30.19,East,90,0.0,1.1,95,0.00,CLR,,0.00,WeatherDisplay:10.37,2013-06-20 08:22:00,
2013-06-20 04:27:00,45.1,43.8,30.19,ESE,112,0.0,0.0,95,0.00,CLR,,0.00,WeatherDisplay:10.37,2013-06-20 08:27:00,
2013-06-20 04:32:00,45.1,43.8,30.18,ESE,112,0.0,0.0,95,0.00,CLR,,0.00,WeatherDisplay:10.37,2013-06-20 08:32:00,
2013-06-20 04:37:00,45.1,43.8,30.18,East,90,0.0,0.0,95,0.00,CLR,,0.00,WeatherDisplay:10.37,2013-06-20 08:37:00,
2013-06-20 04:42:00,45.0,43.7,30.19,ESE,112,0.0,0.0,95,0.00,CLR,,0.00,WeatherDisplay:10.37,2013-06-20 08:42:00,
2013-06-20 04:47:00,44.8,43.5,30.19,ENE,68,0.0,0.0,95,0.00,CLR,,0.00,WeatherDisplay:10.37,2013-06-20 08:47:00,
2013-06-20 04:52:00,44.6,43.3,30.19,SSE,158,0.0,0.0,95,0.00,CLR,,0.00,WeatherDisplay:10.37,2013-06-20 08:52:00,
2013-06-20 04:57:00,44.6,43.3,30.20,SSE,158,0.0,0.0,95,0.00,CLR,,0.00,WeatherDisplay:10.37,2013-06-20 08:57:00,
2013-06-20 05:02:00,44.2,42.9,30.20,NE,45,0.0,0.0,95,0.00,CLR,,0.00,WeatherDisplay:10.37,2013-06-20 09:02:00,
2013-06-20 05:07:00,44.1,42.8,30.19,East,90,0.0,0.0,95,0.00,CLR,,0.00,WeatherDisplay:10.37,2013-06-20 09:07:00,
2013-06-20 05:12:00,43.9,42.6,30.19,SE,135,0.0,0.0,95,0.00,CLR,,0.00,WeatherDisplay:10.37,2013-06-20 09:12:00,
2013-06-20 05:17:00,43.9,42.6,30.20,SE,135,0.0,0.0,95,0.00,CLR,,0.00,WeatherDisplay:10.37,2013-06-20 09:17:00,
2013-06-20 05:22:00,44.1,42.8,30.20,ESE,112,0.0,0.0,95,0.00,CLR,,0.00,WeatherDisplay:10.37,2013-06-20 09:22:00,
2013-06-20 05:27:00,44.1,42.8,30.20,East,90,0.0,0.0,95,0.00,CLR,,0.00,WeatherDisplay:10.37,2013-06-20 09:27:00,
2013-06-20 05:32:00,43.9,42.6,30.20,ENE,68,0.0,0.0,95,0.00,CLR,,0.00,WeatherDisplay:10.37,2013-06-20 09:32:00,
2013-06-20 05:37:00,43.9,42.6,30.20,NNE,22,0.0,0.0,95,0.00,CLR,,0.00,WeatherDisplay:10.37,2013-06-20 09:37:00,
2013-06-20 05:42:00,43.9,42.6,30.20,NNE,22,0.0,0.0,95,0.00,CLR,,0.00,WeatherDisplay:10.37,2013-06-20 09:42:00,
2013-06-20 05:47:00,44.2,42.9,30.20,NNE,22,0.0,0.0,95,0.00,CLR,,0.00,WeatherDisplay:10.37,2013-06-20 09:47:00,
2013-06-20 05:52:00,44.1,42.8,30.20,NNE,22,0.0,0.0,95,0.00,CLR,,0.00,WeatherDisplay:10.37,2013-06-20 09:52:00,
2013-06-20 05:57:00,44.1,42.8,30.21,NNE,22,0.0,0.0,95,0.00,CLR,,0.00,WeatherDisplay:10.37,2013-06-20 09:57:00,
2013-06-20 06:02:00,44.1,42.8,30.21,NNE,22,0.0,0.0,95,0.00,CLR,,0.00,WeatherDisplay:10.37,2013-06-20 10:02:00,
2013-06-20 06:07:00,44.1,42.8,30.21,NNE,22,0.0,0.0,95,0.00,CLR,,0.00,WeatherDisplay:10.37,2013-06-20 10:07:00,
2013-06-20 06:12:00,44.8,43.5,30.21,NNE,22,0.0,0.0,95,0.00,CLR,,0.00,WeatherDisplay:10.37,2013-06-20 10:12:00,
2013-06-20 06:17:00,45.7,44.4,30.22,NNE,22,0.0,0.0,95,0.00,CLR,,0.00,WeatherDisplay:10.37,2013-06-20 10:17:00,
2013-06-20 06:22:00,46.9,45.5,30.22,NNE,22,0.0,0.0,95,0.00,CLR,,0.00,WeatherDisplay:10.37,2013-06-20 10:22:00,
2013-06-20 06:27:00,48.0,46.6,30.22,NNE,22,0.0,0.0,95,0.00,CLR,,0.00,WeatherDisplay:10.37,2013-06-20 10:27:00,
2013-06-20 06:32:00,49.1,47.7,30.22,NNE,22,0.0,0.0,95,0.00,CLR,,0.00,WeatherDisplay:10.37,2013-06-20 10:32:00,
2013-06-20 06:37:00,50.9,49.2,30.22,NNE,22,0.0,0.0,94,0.00,CLR,,0.00,WeatherDisplay:10.37,2013-06-20 10:37:00,
2013-06-20 06:42:00,52.9,49.7,30.23,NE,45,0.0,0.0,89,0.00,CLR,,0.00,WeatherDisplay:10.37,2013-06-20 10:42:00,
2013-06-20 06:47:00,54.0,49.9,30.23,East,90,0.0,0.0,86,0.00,CLR,,0.00,WeatherDisplay:10.37,2013-06-20 10:47:00,
2013-06-20 06:52:00,54.7,49.3,30.23,East,90,1.7,2.3,82,0.00,CLR,,0.00,WeatherDisplay:10.37,2013-06-20 10:52:00,
2013-06-20 06:57:00,55.2,49.5,30.22,SSE,158,1.7,2.3,81,0.00,CLR,,0.00,WeatherDisplay:10.37,2013-06-20 10:57:00,
2013-06-20 07:02:00,56.5,50.1,30.22,NE,45,1.5,2.3,79,0.00,CLR,,0.00,WeatherDisplay:10.37,2013-06-20 11:02:00,
2013-06-20 07:07:00,57.2,50.1,30.22,ESE,112,1.8,2.3,77,0.00,CLR,,0.00,WeatherDisplay:10.37,2013-06-20 11:07:00,
2013-06-20 07:12:00,57.9,50.0,30.22,East,90,1.9,2.3,75,0.00,CLR,,0.00,WeatherDisplay:10.37,2013-06-20 11:12:00,
2013-06-20 07:17:00,57.9,50.0,30.22,East,90,1.7,1.7,75,0.00,CLR,,0.00,WeatherDisplay:10.37,2013-06-20 11:17:00,
2013-06-20 07:22:00,59.0,50.4,30.22,SSE,158,2.3,2.3,73,0.00,CLR,,0.00,WeatherDisplay:10.37,2013-06-20 11:22:00,
2013-06-20 07:27:00,60.6,50.8,30.22,ESE,112,1.7,2.3,70,0.00,CLR,,0.00,WeatherDisplay:10.37,2013-06-20 11:27:00,
2013-06-20 07:32:00,61.9,51.2,30.23,East,90,2.2,2.3,68,0.00,CLR,,0.00,WeatherDisplay:10.37,2013-06-20 11:32:00,
2013-06-20 07:37:00,62.6,51.5,30.23,ESE,112,2.2,2.3,67,0.00,CLR,,0.00,WeatherDisplay:10.37,2013-06-20 11:37:00,
2013-06-20 07:42:00,61.9,50.8,30.23,ESE,112,2.2,3.5,67,0.00,CLR,,0.00,WeatherDisplay:10.37,2013-06-20 11:42:00,
2013-06-20 07:47:00,62.6,50.7,30.23,SE,135,2.6,3.5,65,0.00,CLR,,0.00,WeatherDisplay:10.37,2013-06-20 11:47:00,
2013-06-20 07:52:00,63.0,51.5,30.23,SSE,158,2.4,3.5,66,0.00,CLR,,0.00,WeatherDisplay:10.37,2013-06-20 11:52:00,
2013-06-20 07:57:00,64.9,51.6,30.23,SE,135,2.8,3.5,62,0.00,CLR,,0.00,WeatherDisplay:10.37,2013-06-20 11:57:00,
2013-06-20 08:02:00,65.1,52.2,30.23,South,180,2.3,3.5,63,0.00,CLR,,0.00,WeatherDisplay:10.37,2013-06-20 12:02:00,
2013-06-20 08:07:00,65.7,52.8,30.23,SE,135,2.3,3.5,63,0.00,CLR,,0.00,WeatherDisplay:10.37,2013-06-20 12:07:00,
2013-06-20 08:12:00,66.6,52.7,30.23,SE,135,3.0,3.2,61,0.00,CLR,,0.00,WeatherDisplay:10.37,2013-06-20 12:12:00,
2013-06-20 08:17:00,68.0,52.2,30.23,ESE,112,2.3,2.3,57,0.00,CLR,,0.00,WeatherDisplay:10.37,2013-06-20 12:17:00,
2013-06-20 08:22:00,68.5,53.1,30.24,ESE,112,2.2,2.3,58,0.00,CLR,,0.00,WeatherDisplay:10.37,2013-06-20 12:22:00,
2013-06-20 08:27:00,67.8,53.4,30.24,SE,135,0.7,2.3,60,0.00,CLR,,0.00,WeatherDisplay:10.37,2013-06-20 12:27:00,
2013-06-20 08:32:00,70.2,52.8,30.23,NNE,22,0.6,1.1,54,0.00,CLR,,0.00,WeatherDisplay:10.37,2013-06-20 12:32:00,
2013-06-20 08:37:00,69.8,54.4,30.23,East,90,2.2,2.3,58,0.00,CLR,,0.00,WeatherDisplay:10.37,2013-06-20 12:37:00,
2013-06-20 08:42:00,70.9,53.9,30.23,South,180,2.4,2.4,55,0.00,CLR,,0.00,WeatherDisplay:10.37,2013-06-20 12:42:00,
2013-06-20 08:47:00,69.8,52.9,30.23,SW,225,0.0,0.0,55,0.00,CLR,,0.00,WeatherDisplay:10.37,2013-06-20 12:47:00,
2013-06-20 08:52:00,73.8,53.4,30.23,ESE,112,2.3,2.7,49,0.00,CLR,,0.00,WeatherDisplay:10.37,2013-06-20 12:52:00,
2013-06-20 08:57:00,70.5,54.0,30.23,WSW,248,0.0,1.1,56,0.00,CLR,,0.00,WeatherDisplay:10.37,2013-06-20 12:57:00,
2013-06-20 09:02:00,73.8,52.9,30.23,SE,135,2.7,3.5,48,0.00,CLR,,0.00,WeatherDisplay:10.37,2013-06-20 13:02:00,
2013-06-20 09:07:00,75.9,51.8,30.24,SE,135,0.0,1.1,43,0.00,CLR,,0.00,WeatherDisplay:10.37,2013-06-20 13:07:00,
2013-06-20 09:12:00,77.0,51.5,30.24,SSW,202,0.2,2.3,41,0.00,FEW,,0.00,WeatherDisplay:10.37,2013-06-20 13:12:00,
2013-06-20 09:17:00,78.6,53.6,30.24,ESE,112,2.4,2.7,42,0.00,FEW,,0.00,WeatherDisplay:10.37,2013-06-20 13:17:00,
2013-06-20 09:22:00,76.5,50.4,30.24,West,270,3.3,3.5,40,0.00,FEW,,0.00,WeatherDisplay:10.37,2013-06-20 13:22:00,
2013-06-20 09:27:00,77.2,51.7,30.24,NNE,22,2.3,2.7,41,0.00,FEW,,0.00,WeatherDisplay:10.37,2013-06-20 13:27:00,
2013-06-20 09:32:00,77.2,51.7,30.24,West,270,1.6,3.5,41,0.00,FEW,,0.00,WeatherDisplay:10.37,2013-06-20 13:32:00,
2013-06-20 09:37:00,76.6,50.5,30.24,ESE,112,3.3,4.2,40,0.00,FEW,,0.00,WeatherDisplay:10.37,2013-06-20 13:37:00,
2013-06-20 09:42:00,77.5,51.3,30.24,South,180,1.9,2.7,40,0.00,FEW,,0.00,WeatherDisplay:10.37,2013-06-20 13:42:00,
2013-06-20 09:47:00,76.5,49.7,30.24,ESE,112,1.9,2.3,39,0.00,FEW,,0.00,WeatherDisplay:10.37,2013-06-20 13:47:00,
2013-06-20 09:52:00,77.0,49.4,30.24,NNW,338,0.3,2.3,38,0.00,FEW,,0.00,WeatherDisplay:10.37,2013-06-20 13:52:00,
2013-06-20 09:57:00,79.5,49.4,30.24,NE,45,2.0,3.5,35,0.00,FEW,,0.00,WeatherDisplay:10.37,2013-06-20 13:57:00,
2013-06-20 10:02:00,78.3,49.1,30.24,West,270,2.0,2.2,36,0.00,FEW,,0.00,WeatherDisplay:10.37,2013-06-20 14:02:00,
2013-06-20 10:07:00,78.6,47.9,30.24,NNE,22,1.3,3.5,34,0.00,FEW,,0.00,WeatherDisplay:10.37,2013-06-20 14:07:00,
2013-06-20 10:12:00,76.5,47.6,30.24,SSE,158,3.1,3.7,36,0.00,FEW,,0.00,WeatherDisplay:10.37,2013-06-20 14:12:00,
2013-06-20 10:17:00,79.3,48.5,30.24,West,270,1.2,3.7,34,0.00,FEW,,0.00,WeatherDisplay:10.37,2013-06-20 14:17:00,
2013-06-20 10:22:00,77.7,47.1,30.23,SW,225,2.1,2.7,34,0.00,FEW,,0.00,WeatherDisplay:10.37,2013-06-20 14:22:00,
2013-06-20 10:27:00,79.0,49.8,30.23,WNW,292,1.7,1.7,36,0.00,FEW,,0.00,WeatherDisplay:10.37,2013-06-20 14:27:00,
2013-06-20 10:32:00,81.0,47.5,30.23,ESE,112,2.4,3.5,31,0.00,FEW,,0.00,WeatherDisplay:10.37,2013-06-20 14:32:00,
2013-06-20 10:37:00,78.3,47.6,30.23,East,90,2.9,4.6,34,0.00,FEW,,0.00,WeatherDisplay:10.37,2013-06-20 14:37:00,
2013-06-20 10:42:00,80.8,45.6,30.23,South,180,2.0,2.3,29,0.00,FEW,,0.00,WeatherDisplay:10.37,2013-06-20 14:42:00,
2013-06-20 10:47:00,79.9,45.7,30.23,SSE,158,1.7,2.3,30,0.00,FEW,,0.00,WeatherDisplay:10.37,2013-06-20 14:47:00,
2013-06-20 10:52:00,82.2,44.9,30.23,WNW,292,2.5,4.6,27,0.00,FEW,,0.00,WeatherDisplay:10.37,2013-06-20 14:52:00,
2013-06-20 10:57:00,81.9,44.6,30.23,NNE,22,2.2,4.6,27,0.00,FEW,,0.00,WeatherDisplay:10.37,2013-06-20 14:57:00,
2013-06-20 11:02:00,78.1,50.4,30.23,West,270,2.2,2.3,38,0.00,CLR,,0.00,WeatherDisplay:10.37,2013-06-20 15:02:00,
2013-06-20 11:07:00,81.5,46.2,30.23,West,270,2.1,3.5,29,0.00,CLR,,0.00,WeatherDisplay:10.37,2013-06-20 15:07:00,
2013-06-20 11:12:00,82.8,47.3,30.23,East,90,2.7,3.5,29,0.00,CLR,,0.00,WeatherDisplay:10.37,2013-06-20 15:12:00,
2013-06-20 11:17:00,82.8,45.4,30.23,West,270,2.2,3.5,27,0.00,CLR,,0.00,WeatherDisplay:10.37,2013-06-20 15:17:00,
2013-06-20 11:22:00,81.1,46.7,30.23,WSW,248,3.2,4.6,30,0.00,CLR,,0.00,WeatherDisplay:10.37,2013-06-20 15:22:00,
2013-06-20 11:27:00,80.8,47.3,30.23,ESE,112,2.6,3.5,31,0.00,CLR,,0.00,WeatherDisplay:10.37,2013-06-20 15:27:00,
2013-06-20 11:32:00,80.2,44.1,30.23,ESE,112,3.2,4.6,28,0.00,CLR,,0.00,WeatherDisplay:10.37,2013-06-20 15:32:00,
2013-06-20 11:37:00,80.8,46.5,30.23,SE,135,0.3,1.1,30,0.00,CLR,,0.00,WeatherDisplay:10.37,2013-06-20 15:37:00,
2013-06-20 11:42:00,81.0,44.8,30.23,WSW,248,2.4,4.7,28,0.00,CLR,,0.00,WeatherDisplay:10.37,2013-06-20 15:42:00,
2013-06-20 11:47:00,81.1,45.8,30.23,NE,45,2.0,3.5,29,0.00,CLR,,0.00,WeatherDisplay:10.37,2013-06-20 15:47:00,
2013-06-20 11:52:00,81.7,45.4,30.23,NW,315,3.8,4.7,28,0.00,CLR,,0.00,WeatherDisplay:10.37,2013-06-20 15:52:00,
2013-06-20 11:57:00,81.1,43.0,30.22,ESE,112,3.1,4.6,26,0.00,CLR,,0.00,WeatherDisplay:10.37,2013-06-20 15:57:00,
2013-06-20 12:02:00,80.6,47.2,30.22,ESE,112,1.5,2.3,31,0.00,SCT,,0.00,WeatherDisplay:10.37,2013-06-20 16:02:00,
2013-06-20 12:07:00,82.2,45.8,30.22,SW,225,2.9,3.2,28,0.00,SCT,,0.00,WeatherDisplay:10.37,2013-06-20 16:07:00,
2013-06-20 12:12:00,82.2,51.8,30.22,NNE,22,0.6,2.3,35,0.00,SCT,,0.00,WeatherDisplay:10.37,2013-06-20 16:12:00,
2013-06-20 12:17:00,82.9,46.4,30.21,ENE,68,3.4,4.2,28,0.00,SCT,,0.00,WeatherDisplay:10.37,2013-06-20 16:17:00,
2013-06-20 12:22:00,81.1,44.9,30.21,East,90,4.3,5.8,28,0.00,SCT,,0.00,WeatherDisplay:10.37,2013-06-20 16:22:00,
2013-06-20 12:27:00,80.8,47.3,30.21,SW,225,4.1,4.6,31,0.00,SCT,,0.00,WeatherDisplay:10.37,2013-06-20 16:27:00,
2013-06-20 12:32:00,81.7,45.4,30.22,ESE,112,2.5,3.5,28,0.00,SCT,,0.00,WeatherDisplay:10.37,2013-06-20 16:32:00,
2013-06-20 12:37:00,81.9,47.4,30.22,WNW,292,1.7,4.6,30,0.00,SCT,,0.00,WeatherDisplay:10.37,2013-06-20 16:37:00,
2013-06-20 12:42:00,80.8,47.3,30.21,SSE,158,3.1,5.8,31,0.00,SCT,,0.00,WeatherDisplay:10.37,2013-06-20 16:42:00,
2013-06-20 12:47:00,79.3,48.5,30.21,SSE,158,2.8,3.5,34,0.00,SCT,,0.00,WeatherDisplay:10.37,2013-06-20 16:47:00,
2013-06-20 12:52:00,81.1,46.7,30.21,ESE,112,3.2,4.6,30,0.00,SCT,,0.00,WeatherDisplay:10.37,2013-06-20 16:52:00,
2013-06-20 12:57:00,83.7,44.1,30.21,WNW,292,3.6,4.6,25,0.00,SCT,,0.00,WeatherDisplay:10.37,2013-06-20 16:57:00,
2013-06-20 13:02:00,81.1,44.9,30.21,NE,45,3.9,4.6,28,0.00,SCT,,0.00,WeatherDisplay:10.37,2013-06-20 17:02:00,
2013-06-20 13:07:00,81.0,49.2,30.21,SSW,202,3.2,4.6,33,0.00,SCT,,0.00,WeatherDisplay:10.37,2013-06-20 17:07:00,
2013-06-20 13:12:00,81.3,49.4,30.21,SSW,202,3.3,3.5,33,0.00,SCT,,0.00,WeatherDisplay:10.37,2013-06-20 17:12:00,
2013-06-20 13:17:00,82.9,43.5,30.20,ESE,112,4.5,5.8,25,0.00,SCT,,0.00,WeatherDisplay:10.37,2013-06-20 17:17:00,
2013-06-20 13:22:00,82.8,46.4,30.20,SE,135,2.1,3.5,28,0.00,SCT,,0.00,WeatherDisplay:10.37,2013-06-20 17:22:00,
2013-06-20 13:27:00,82.4,45.1,30.20,East,90,3.0,3.5,27,0.00,SCT,,0.00,WeatherDisplay:10.37,2013-06-20 17:27:00,
2013-06-20 13:32:00,84.0,46.4,30.20,ESE,112,1.1,3.2,27,0.00,SCT,,0.00,WeatherDisplay:10.37,2013-06-20 17:32:00,
2013-06-20 13:37:00,83.8,50.8,30.20,SE,135,2.9,4.6,32,0.00,SCT,,0.00,WeatherDisplay:10.37,2013-06-20 17:37:00,
2013-06-20 13:42:00,83.8,50.8,30.20,SE,135,3.2,3.5,32,0.00,SCT,,0.00,WeatherDisplay:10.37,2013-06-20 17:42:00,
2013-06-20 13:47:00,81.3,49.4,30.20,SE,135,3.5,4.6,33,0.00,SCT,,0.00,WeatherDisplay:10.37,2013-06-20 17:47:00,
2013-06-20 13:52:00,82.2,43.9,30.20,SSW,202,2.5,6.9,26,0.00,SCT,,0.00,WeatherDisplay:10.37,2013-06-20 17:52:00,
2013-06-20 13:57:00,83.7,46.2,30.20,SSE,158,2.6,4.2,27,0.00,SCT,,0.00,WeatherDisplay:10.37,2013-06-20 17:57:00,
2013-06-20 14:02:00,82.9,46.4,30.20,NW,315,1.8,2.3,28,0.00,SCT,,0.00,WeatherDisplay:10.37,2013-06-20 18:02:00,
2013-06-20 14:07:00,84.6,45.9,30.21,North,360,3.3,5.8,26,0.00,SCT,,0.00,WeatherDisplay:10.37,2013-06-20 18:07:00,
2013-06-20 14:12:00,83.1,46.6,30.21,NNW,338,3.6,5.8,28,0.00,SCT,,0.00,WeatherDisplay:10.37,2013-06-20 18:12:00,
2013-06-20 14:17:00,84.4,46.8,30.21,East,90,1.6,2.3,27,0.00,SCT,,0.00,WeatherDisplay:10.37,2013-06-20 18:17:00,
2013-06-20 14:22:00,84.0,46.4,30.21,WSW,248,4.9,6.9,27,0.00,SCT,,0.00,WeatherDisplay:10.37,2013-06-20 18:22:00,
2013-06-20 14:27:00,84.0,45.4,30.21,SW,225,3.7,5.3,26,0.00,SCT,,0.00,WeatherDisplay:10.37,2013-06-20 18:27:00,
2013-06-20 14:32:00,82.8,42.3,30.20,WSW,248,5.4,5.8,24,0.00,SCT,,0.00,WeatherDisplay:10.37,2013-06-20 18:32:00,
2013-06-20 14:37:00,82.2,42.9,30.20,West,270,3.3,4.7,25,0.00,SCT,,0.00,WeatherDisplay:10.37,2013-06-20 18:37:00,
2013-06-20 14:42:00,82.8,45.4,30.20,SSE,158,1.0,2.3,27,0.00,SCT,,0.00,WeatherDisplay:10.37,2013-06-20 18:42:00,
2013-06-20 14:47:00,84.6,42.7,30.20,WNW,292,2.7,3.7,23,0.00,SCT,,0.00,WeatherDisplay:10.37,2013-06-20 18:47:00,
2013-06-20 14:52:00,86.0,41.5,30.20,SE,135,4.4,5.8,21,0.00,SCT,,0.00,WeatherDisplay:10.37,2013-06-20 18:52:00,
2013-06-20 14:57:00,84.6,40.4,30.20,SSE,158,3.7,3.7,21,0.00,SCT,,0.00,WeatherDisplay:10.37,2013-06-20 18:57:00,
2013-06-20 15:02:00,84.4,44.7,30.20,ESE,112,4.5,5.8,25,0.00,SCT,,0.00,WeatherDisplay:10.37,2013-06-20 19:02:00,
2013-06-20 15:07:00,84.4,45.8,30.20,SE,135,0.3,2.3,26,0.00,SCT,,0.00,WeatherDisplay:10.37,2013-06-20 19:07:00,
2013-06-20 15:12:00,84.7,42.8,30.20,WSW,248,3.7,5.8,23,0.00,SCT,,0.00,WeatherDisplay:10.37,2013-06-20 19:12:00,
2013-06-20 15:17:00,84.4,43.7,30.20,SSE,158,3.8,6.8,24,0.00,SCT,,0.00,WeatherDisplay:10.37,2013-06-20 19:17:00,
2013-06-20 15:22:00,83.3,42.7,30.20,ESE,112,1.9,4.6,24,0.00,SCT,,0.00,WeatherDisplay:10.37,2013-06-20 19:22:00,
2013-06-20 15:27:00,85.8,41.3,30.20,NW,315,2.4,3.5,21,0.00,SCT,,0.00,WeatherDisplay:10.37,2013-06-20 19:27:00,
2013-06-20 15:32:00,84.2,42.4,30.20,WNW,292,4.7,5.8,23,0.00,SCT,,0.00,WeatherDisplay:10.37,2013-06-20 19:32:00,
2013-06-20 15:37:00,84.9,36.7,30.20,South,180,3.6,3.7,18,0.00,SCT,,0.00,WeatherDisplay:10.37,2013-06-20 19:37:00,
2013-06-20 15:42:00,84.4,41.4,30.20,WSW,248,1.5,3.7,22,0.00,SCT,,0.00,WeatherDisplay:10.37,2013-06-20 19:42:00,
2013-06-20 15:47:00,85.3,38.4,30.20,West,270,6.5,6.5,19,0.00,SCT,,0.00,WeatherDisplay:10.37,2013-06-20 19:47:00,
2013-06-20 15:52:00,83.5,40.6,30.20,NNW,338,6.8,6.9,22,0.00,SCT,,0.00,WeatherDisplay:10.37,2013-06-20 19:52:00,
2013-06-20 15:57:00,83.8,35.8,30.20,West,270,6.2,8.1,18,0.00,SCT,,0.00,WeatherDisplay:10.37,2013-06-20 19:57:00,
2013-06-20 16:02:00,82.8,41.2,30.20,SW,225,5.8,6.3,23,0.00,SCT,,0.00,WeatherDisplay:10.37,2013-06-20 20:02:00,
2013-06-20 16:07:00,83.3,42.7,30.19,SSW,202,4.3,4.7,24,0.00,SCT,,0.00,WeatherDisplay:10.37,2013-06-20 20:07:00,
2013-06-20 16:12:00,83.1,43.6,30.19,West,270,3.5,4.6,25,0.00,SCT,,0.00,WeatherDisplay:10.37,2013-06-20 20:12:00,
2013-06-20 16:17:00,82.9,41.3,30.19,SW,225,4.9,5.8,23,0.00,SCT,,0.00,WeatherDisplay:10.37,2013-06-20 20:17:00,
2013-06-20 16:22:00,82.6,43.2,30.19,West,270,5.3,5.3,25,0.00,SCT,,0.00,WeatherDisplay:10.37,2013-06-20 20:22:00,
2013-06-20 16:27:00,83.5,45.0,30.19,WNW,292,5.0,5.8,26,0.00,SCT,,0.00,WeatherDisplay:10.37,2013-06-20 20:27:00,
2013-06-20 16:32:00,83.3,45.8,30.19,WSW,248,4.8,6.9,27,0.00,SCT,,0.00,WeatherDisplay:10.37,2013-06-20 20:32:00,
2013-06-20 16:37:00,82.4,46.9,30.19,NW,315,4.6,6.3,29,0.00,SCT,,0.00,WeatherDisplay:10.37,2013-06-20 20:37:00,
2013-06-20 16:42:00,83.1,46.6,30.19,West,270,4.9,5.8,28,0.00,SCT,,0.00,WeatherDisplay:10.37,2013-06-20 20:42:00,
2013-06-20 16:47:00,82.6,47.1,30.19,WSW,248,5.2,5.8,29,0.00,SCT,,0.00,WeatherDisplay:10.37,2013-06-20 20:47:00,
2013-06-20 16:52:00,81.3,47.8,30.19,SW,225,3.9,6.9,31,0.00,SCT,,0.00,WeatherDisplay:10.37,2013-06-20 20:52:00,
2013-06-20 16:57:00,82.8,46.4,30.20,North,360,3.2,4.6,28,0.00,SCT,,0.00,WeatherDisplay:10.37,2013-06-20 20:57:00,
2013-06-20 17:02:00,81.9,45.6,30.20,WNW,292,7.0,9.2,28,0.00,SCT,,0.00,WeatherDisplay:10.37,2013-06-20 21:02:00,
2013-06-20 17:07:00,80.8,47.3,30.20,West,270,1.7,4.6,31,0.00,SCT,,0.00,WeatherDisplay:10.37,2013-06-20 21:07:00,
2013-06-20 17:12:00,81.3,48.6,30.20,SSW,202,6.1,6.9,32,0.00,SCT,,0.00,WeatherDisplay:10.37,2013-06-20 21:12:00,
2013-06-20 17:17:00,81.5,48.8,30.20,West,270,5.2,6.9,32,0.00,SCT,,0.00,WeatherDisplay:10.37,2013-06-20 21:17:00,
2013-06-20 17:22:00,81.1,48.4,30.21,West,270,6.0,6.9,32,0.00,SCT,,0.00,WeatherDisplay:10.37,2013-06-20 21:22:00,
2013-06-20 17:27:00,81.0,48.4,30.21,WNW,292,4.2,5.8,32,0.00,SCT,,0.00,WeatherDisplay:10.37,2013-06-20 21:27:00,
2013-06-20 17:32:00,80.6,48.0,30.20,West,270,5.5,6.9,32,0.00,SCT,,0.00,WeatherDisplay:10.37,2013-06-20 21:32:00,
2013-06-20 17:37:00,80.8,46.5,30.20,WSW,248,5.8,6.9,30,0.00,SCT,,0.00,WeatherDisplay:10.37,2013-06-20 21:37:00,
2013-06-20 17:42:00,80.2,45.9,30.20,West,270,5.4,5.8,30,0.00,SCT,,0.00,WeatherDisplay:10.37,2013-06-20 21:42:00,
2013-06-20 17:47:00,81.0,46.6,30.20,SE,135,4.3,5.8,30,0.00,SCT,,0.00,WeatherDisplay:10.37,2013-06-20 21:47:00,
2013-06-20 17:52:00,80.4,47.0,30.20,SW,225,4.2,5.8,31,0.00,SCT,,0.00,WeatherDisplay:10.37,2013-06-20 21:52:00,
2013-06-20 17:57:00,81.0,45.7,30.20,SW,225,5.4,6.9,29,0.00,SCT,,0.00,WeatherDisplay:10.37,2013-06-20 21:57:00,
2013-06-20 18:02:00,81.0,45.7,30.20,West,270,4.7,5.8,29,0.00,SCT,,0.00,WeatherDisplay:10.37,2013-06-20 22:02:00,
2013-06-20 18:07:00,81.1,43.0,30.19,WSW,248,3.3,5.8,26,0.00,SCT,,0.00,WeatherDisplay:10.37,2013-06-20 22:07:00,
2013-06-20 18:12:00,81.9,43.6,30.19,WNW,292,2.7,3.5,26,0.00,SCT,,0.00,WeatherDisplay:10.37,2013-06-20 22:12:00,
2013-06-20 18:17:00,81.7,44.5,30.19,SW,225,1.1,3.5,27,0.00,SCT,,0.00,WeatherDisplay:10.37,2013-06-20 22:17:00,
2013-06-20 18:22:00,79.5,47.9,30.19,ENE,68,3.3,5.8,33,0.00,SCT,,0.00,WeatherDisplay:10.37,2013-06-20 22:22:00,
2013-06-20 18:27:00,79.9,49.0,30.19,ESE,112,3.2,5.8,34,0.00,SCT,,0.00,WeatherDisplay:10.37,2013-06-20 22:27:00,
2013-06-20 18:32:00,79.0,49.8,30.18,East,90,1.8,3.5,36,0.00,SCT,,0.00,WeatherDisplay:10.37,2013-06-20 22:32:00,
2013-06-20 18:37:00,77.9,48.8,30.18,ESE,112,2.7,8.1,36,0.00,SCT,,0.00,WeatherDisplay:10.37,2013-06-20 22:37:00,
2013-06-20 18:42:00,78.1,49.0,30.19,ESE,112,2.5,5.8,36,0.00,SCT,,0.00,WeatherDisplay:10.37,2013-06-20 22:42:00,
2013-06-20 18:47:00,78.4,50.0,30.19,SSE,158,3.2,3.5,37,0.00,SCT,,0.00,WeatherDisplay:10.37,2013-06-20 22:47:00,
2013-06-20 18:52:00,77.7,48.6,30.19,ESE,112,5.0,5.8,36,0.00,SCT,,0.00,WeatherDisplay:10.37,2013-06-20 22:52:00,
2013-06-20 18:57:00,77.7,50.1,30.19,SW,225,1.7,2.3,38,0.00,SCT,,0.00,WeatherDisplay:10.37,2013-06-20 22:57:00,
2013-06-20 19:02:00,77.2,48.9,30.19,WNW,292,3.0,4.6,37,0.00,SCT,,0.00,WeatherDisplay:10.37,2013-06-20 23:02:00,
2013-06-20 19:07:00,77.4,49.1,30.19,North,360,3.6,3.6,37,0.00,SCT,,0.00,WeatherDisplay:10.37,2013-06-20 23:07:00,
2013-06-20 19:12:00,76.3,48.8,30.19,East,90,5.2,5.8,38,0.00,SCT,,0.00,WeatherDisplay:10.37,2013-06-20 23:12:00,
2013-06-20 19:17:00,76.1,49.3,30.18,East,90,3.0,4.6,39,0.00,SCT,,0.00,WeatherDisplay:10.37,2013-06-20 23:17:00,
2013-06-20 19:22:00,75.7,49.0,30.18,SE,135,4.8,5.8,39,0.00,SCT,,0.00,WeatherDisplay:10.37,2013-06-20 23:22:00,
2013-06-20 19:27:00,75.4,48.7,30.18,ESE,112,2.6,5.8,39,0.00,SCT,,0.00,WeatherDisplay:10.37,2013-06-20 23:27:00,
2013-06-20 19:32:00,75.4,48.7,30.18,ESE,112,3.1,5.8,39,0.00,SCT,,0.00,WeatherDisplay:10.37,2013-06-20 23:32:00,
2013-06-20 19:37:00,74.8,48.9,30.18,ESE,112,4.1,5.8,40,0.00,SCT,,0.00,WeatherDisplay:10.37,2013-06-20 23:37:00,
2013-06-20 19:42:00,75.0,49.0,30.19,ESE,112,1.9,3.5,40,0.00,SCT,,0.00,WeatherDisplay:10.37,2013-06-20 23:42:00,
2013-06-20 19:47:00,74.7,49.4,30.19,NNE,22,2.4,4.6,41,0.00,SCT,,0.00,WeatherDisplay:10.37,2013-06-20 23:47:00,
2013-06-20 19:52:00,74.3,49.1,30.19,South,180,1.9,5.8,41,0.00,SCT,,0.00,WeatherDisplay:10.37,2013-06-20 23:52:00,
2013-06-20 19:57:00,73.9,48.7,30.19,East,90,2.7,4.6,41,0.00,SCT,,0.00,WeatherDisplay:10.37,2013-06-20 23:57:00,
2013-06-20 20:02:00,73.4,48.3,30.19,ESE,112,3.4,4.6,41,0.00,SCT,,0.00,WeatherDisplay:10.37,2013-06-21 00:02:00,
2013-06-20 20:07:00,73.8,49.3,30.19,ESE,112,3.2,3.5,42,0.00,SCT,,0.00,WeatherDisplay:10.37,2013-06-21 00:07:00,
2013-06-20 20:12:00,73.0,49.2,30.19,NE,45,2.5,3.5,43,0.00,SCT,,0.00,WeatherDisplay:10.37,2013-06-21 00:12:00,
2013-06-20 20:17:00,72.3,48.5,30.19,ENE,68,1.8,2.3,43,0.00,SCT,,0.00,WeatherDisplay:10.37,2013-06-21 00:17:00,
2013-06-20 20:22:00,71.4,48.3,30.19,ENE,68,3.2,3.7,44,0.00,SCT,,0.00,WeatherDisplay:10.37,2013-06-21 00:22:00,
2013-06-20 20:27:00,71.2,48.8,30.19,East,90,1.2,1.2,45,0.00,SCT,,0.00,WeatherDisplay:10.37,2013-06-21 00:27:00,
2013-06-20 20:32:00,70.9,49.1,30.19,SSE,158,2.2,2.3,46,0.00,SCT,,0.00,WeatherDisplay:10.37,2013-06-21 00:32:00,
2013-06-20 20:37:00,70.3,49.1,30.19,ESE,112,1.7,2.3,47,0.00,SCT,,0.00,WeatherDisplay:10.37,2013-06-21 00:37:00,
2013-06-20 20:42:00,69.6,49.0,30.19,ESE,112,1.7,2.3,48,0.00,SCT,,0.00,WeatherDisplay:10.37,2013-06-21 00:42:00,
2013-06-20 20:47:00,68.7,48.8,30.19,East,90,1.5,2.3,49,0.00,SCT,,0.00,WeatherDisplay:10.37,2013-06-21 00:47:00,
2013-06-20 20:52:00,68.0,48.7,30.19,ESE,112,1.8,2.3,50,0.00,SCT,,0.00,WeatherDisplay:10.37,2013-06-21 00:52:00,
2013-06-20 20:57:00,67.3,49.1,30.19,ESE,112,1.8,2.3,52,0.00,SCT,,0.00,WeatherDisplay:10.37,2013-06-21 00:57:00,
2013-06-20 21:02:00,66.7,49.0,30.19,SE,135,1.3,1.3,53,0.00,SCT,,0.00,WeatherDisplay:10.37,2013-06-21 01:02:00,
2013-06-20 21:07:00,66.2,49.1,30.20,ESE,112,0.0,0.0,54,0.00,SCT,,0.00,WeatherDisplay:10.37,2013-06-21 01:07:00,
2013-06-20 21:12:00,65.5,49.4,30.20,East,90,0.0,0.0,56,0.00,SCT,,0.00,WeatherDisplay:10.37,2013-06-21 01:12:00,
2013-06-20 21:17:00,64.9,49.8,30.20,ESE,112,0.0,0.0,58,0.00,SCT,,0.00,WeatherDisplay:10.37,2013-06-21 01:17:00,
2013-06-20 21:22:00,64.4,49.8,30.20,NE,45,0.0,0.0,59,0.00,SCT,,0.00,WeatherDisplay:10.37,2013-06-21 01:22:00,
2013-06-20 21:27:00,63.3,50.9,30.20,SSE,158,0.0,0.0,64,0.00,SCT,,0.00,WeatherDisplay:10.37,2013-06-21 01:27:00,
2013-06-20 21:32:00,62.8,50.9,30.20,SSE,158,0.0,0.0,65,0.00,SCT,,0.00,WeatherDisplay:10.37,2013-06-21 01:32:00,
2013-06-20 21:37:00,62.2,51.5,30.20,SSE,158,0.0,0.0,68,0.00,SCT,,0.00,WeatherDisplay:10.37,2013-06-21 01:37:00,
2013-06-20 21:42:00,61.9,51.6,30.21,ESE,112,0.0,0.0,69,0.00,SCT,,0.00,WeatherDisplay:10.37,2013-06-21 01:42:00,
2013-06-20 21:47:00,61.5,51.6,30.21,ESE,112,0.0,0.0,70,0.00,SCT,,0.00,WeatherDisplay:10.37,2013-06-21 01:47:00,
2013-06-20 21:52:00,60.8,50.6,30.21,ESE,112,0.0,0.0,69,0.00,SCT,,0.00,WeatherDisplay:10.37,2013-06-21 01:52:00,
2013-06-20 21:57:00,60.4,52.1,30.22,SE,135,0.6,1.7,74,0.00,SCT,,0.00,WeatherDisplay:10.37,2013-06-21 01:57:00,
2013-06-20 22:02:00,60.1,52.1,30.22,South,180,0.0,0.0,75,0.00,SCT,,0.00,WeatherDisplay:10.37,2013-06-21 02:02:00,
2013-06-20 22:07:00,59.7,52.1,30.22,SSE,158,2.0,2.7,76,0.00,SCT,,0.00,WeatherDisplay:10.37,2013-06-21 02:07:00,
2013-06-20 22:12:00,59.4,52.2,30.22,SSE,158,2.3,2.7,77,0.00,SCT,,0.00,WeatherDisplay:10.37,2013-06-21 02:12:00,
2013-06-20 22:17:00,59.4,52.2,30.21,ESE,112,0.0,1.1,77,0.00,SCT,,0.00,WeatherDisplay:10.37,2013-06-21 02:17:00,
2013-06-20 22:22:00,59.0,51.8,30.21,ESE,112,1.2,1.7,77,0.00,SCT,,0.00,WeatherDisplay:10.37,2013-06-21 02:22:00,
2013-06-20 22:27:00,58.6,51.4,30.21,SSE,158,0.0,0.0,77,0.00,SCT,,0.00,WeatherDisplay:10.37,2013-06-21 02:27:00,
2013-06-20 22:32:00,58.5,51.7,30.22,SE,135,0.0,0.0,78,0.00,SCT,,0.00,WeatherDisplay:10.37,2013-06-21 02:32:00,
2013-06-20 22:37:00,58.3,51.5,30.22,SE,135,1.3,1.7,78,0.00,SCT,,0.00,WeatherDisplay:10.37,2013-06-21 02:37:00,
2013-06-20 22:42:00,57.9,51.4,30.22,SSE,158,0.0,0.0,79,0.00,SCT,,0.00,WeatherDisplay:10.37,2013-06-21 02:42:00,
2013-06-20 22:47:00,57.9,51.4,30.22,SE,135,1.9,2.3,79,0.00,SCT,,0.00,WeatherDisplay:10.37,2013-06-21 02:47:00,
2013-06-20 22:52:00,57.9,51.4,30.22,SSE,158,1.4,2.3,79,0.00,SCT,,0.00,WeatherDisplay:10.37,2013-06-21 02:52:00,
2013-06-20 22:57:00,57.9,51.4,30.22,SSE,158,2.0,2.3,79,0.00,SCT,,0.00,WeatherDisplay:10.37,2013-06-21 02:57:00,
2013-06-20 23:02:00,57.9,51.4,30.22,South,180,2.5,2.7,79,0.00,FEW,,0.00,WeatherDisplay:10.37,2013-06-21 03:02:00,
2013-06-20 23:07:00,58.6,51.1,30.22,South,180,2.7,3.5,76,0.00,FEW,,0.00,WeatherDisplay:10.37,2013-06-21 03:07:00,
2013-06-20 23:12:00,59.0,51.1,30.22,SSE,158,2.9,3.5,75,0.00,FEW,,0.00,WeatherDisplay:10.37,2013-06-21 03:12:00,
2013-06-20 23:17:00,58.8,50.5,30.22,SE,135,0.7,1.1,74,0.00,FEW,,0.00,WeatherDisplay:10.37,2013-06-21 03:17:00,
2013-06-20 23:22:00,58.6,50.7,30.21,SE,135,3.0,3.5,75,0.00,FEW,,0.00,WeatherDisplay:10.37,2013-06-21 03:22:00,
2013-06-20 23:27:00,59.2,51.3,30.21,SSW,202,3.3,4.7,75,0.00,FEW,,0.00,WeatherDisplay:10.37,2013-06-21 03:27:00,
2013-06-20 23:32:00,59.4,51.1,30.21,SE,135,2.5,2.5,74,0.00,FEW,,0.00,WeatherDisplay:10.37,2013-06-21 03:32:00,
2013-06-20 23:37:00,59.0,50.7,30.21,ESE,112,0.0,1.1,74,0.00,FEW,,0.00,WeatherDisplay:10.37,2013-06-21 03:37:00,
2013-06-20 23:42:00,58.8,50.9,30.21,ESE,112,2.5,3.5,75,0.00,FEW,,0.00,WeatherDisplay:10.37,2013-06-21 03:42:00,
2013-06-20 23:47:00,58.8,50.9,30.21,ESE,112,2.5,2.7,75,0.00,FEW,,0.00,WeatherDisplay:10.37,2013-06-21 03:47:00,
2013-06-20 23:52:00,58.6,50.7,30.21,ESE,112,1.9,2.3,75,0.00,FEW,,0.00,WeatherDisplay:10.37,2013-06-21 03:52:00,
2013-06-20 23:57:00,58.5,50.6,30.21,SSE,158,1.8,2.3,75,0.00,FEW,,0.00,WeatherDisplay:10.37,2013-06-21 03:57:00,